logo
Rechercher aéroport 
image banner adimage banner adimage banner ad
image banner ad

SMRN - Raghoebarsing

Situé à , Suriname

ICAO - , IATA -

Données fournies par Airmate  

Information générale

Coordonnées: N4°53'8" W56°56'27"
Élévation : 124 feet MSL.
 
Voir autres Aéroports à Sipaliwini

Données opérationnelles

Special qualification required
Heure actuelle UTC:
Heure actuelle locale:
Météo à : - ( 0 km )
METAR: KQFX 232010Z AUTO 00000KT 6000 FEW002 BKN032 BKN095 24/24 A2966 RMK A02 TSNO
Voir NOTAMs / SUP AIP / TFR affectant cet aéroport [VIEW]
Fréquences de communication: [VIEW]

Pistes:

Identifiant RWYQFULongueur (ft)Largeur (ft)SurfaceLDA (ft)
0800UNK
2600UNK

Coordonnées de l'aéroport

Adresse: Suriname

Vue satellite de SMRN